This is the latest recevied weather packets stored in our database for station/object KC4JES. If no packets are shown the sender has not sent any weather packets the latest 10 day(s).
| Time | Temp. | Humidity | Pressure | Rain* | Wind** | Luminosity | Snow |
|---|---|---|---|---|---|---|---|
| 1777931239 | 23.89° C | 58% | 1016.8 hPa | 0 mm | - | 59 W/m² | - |
| 1777930935 | 23.33° C | 57% | 1016.7 hPa | 0 mm | - | 54 W/m² | - |
| 1777930632 | 24.44° C | 54% | 1016.9 hPa | 0 mm | - | 53 W/m² | - |
| 1777930329 | 25° C | 53% | 1017 hPa | 0 mm | - | 124 W/m² | - |
| 1777930026 | 24.44° C | 56% | 1017 hPa | 0 mm | - | 470 W/m² | - |
| 1777929722 | 24.44° C | 55% | 1017.2 hPa | 0 mm | - | 81 W/m² | - |
| 1777929420 | 25° C | 53% | 1017 hPa | 0 mm | - | 72 W/m² | - |
| 1777929115 | 24.44° C | 55% | 1016.8 hPa | 0 mm | - | 524 W/m² | - |
| 1777922661 | 26.67° C | 47% | 1017.7 hPa | 0 mm | - | 885 W/m² | - |
| 1777922360 | 26.67° C | 47% | 1017.7 hPa | 0 mm | - | 885 W/m² | - |
| 1777922057 | 26.67° C | 47% | 1017.7 hPa | 0 mm | - | 885 W/m² | - |
| 1777921752 | 26.67° C | 45% | 1018 hPa | 0 mm | - | 896 W/m² | - |
| 1777921448 | 26.11° C | 49% | 1018.1 hPa | 0 mm | - | 906 W/m² | - |
| 1777921145 | 25.56° C | 47% | 1018.2 hPa | 0 mm | - | 907 W/m² | - |
| 1777920843 | 26.11° C | 51% | 1018.2 hPa | 0 mm | - | 923 W/m² | - |
| 1777920538 | 26.11° C | 45% | 1018.3 hPa | 0 mm | - | 933 W/m² | - |
| 1777920234 | 26.11° C | 45% | 1018.4 hPa | 0 mm | - | 938 W/m² | - |
| 1777919930 | 26.67° C | 46% | 1018.4 hPa | 0 mm | - | 947 W/m² | - |
| 1777919628 | 26.67° C | 45% | 1018.4 hPa | 0 mm | - | 958 W/m² | - |
| 1777919325 | 26.11° C | 43% | 1018.7 hPa | 0 mm | - | 966 W/m² | - |
| 1777919023 | 26.11° C | 45% | 1018.8 hPa | 0 mm | - | 965 W/m² | - |
| 1777918719 | 26.11° C | 47% | 1018.5 hPa | 0 mm | - | 977 W/m² | - |
| 1777918417 | 25.56° C | 49% | 1018.5 hPa | 0 mm | - | 980 W/m² | - |
| 1777918116 | 25.56° C | 46% | 1018.3 hPa | 0 mm | - | 988 W/m² | - |
| 1777917813 | 25.56° C | 50% | 1018.5 hPa | 0 mm | - | 994 W/m² | - |
* Rain latest hour (hover to see other rain measurements)
** Current wind speed in m/s (hover to see current wind gust speed)